WetterOnline ( https://www.wetteronline.at )

Wetter aktuell Grevesmühlen

Aktuelles Wetter: Boltenhagen (17m)

6-stündlich | Neueste Meldungen
Ortszeit Temperatur Wetter
So, 29.11. 19:00 3.5° C bedeckt
So, 29.11. 13:00 3.7° C leicht bewölkt
So, 29.11. 7:00 3.9° C Sprühregen
So, 29.11. 1:00 3.1° C bedeckt
Sa, 28.11. 19:00 2.2° C bewölkt
Sa, 28.11. 13:00 3.1° C bewölkt
Sa, 28.11. 7:00 -1.6° C wolkenlos
Sa, 28.11. 1:00 -0.1° C leicht bewölkt
Ortszeit Temperatur Wetter
So, 29.11. 20:30 3.3° C Sprühregen
So, 29.11. 20:20 3.3° C Sprühregen
So, 29.11. 20:10 3.4° C Sprühregen
So, 29.11. 20:00 3.6° C bewölkt
So, 29.11. 19:50 3.6° C bewölkt
So, 29.11. 19:40 3.7° C bedeckt
So, 29.11. 19:30 3.6° C bedeckt
So, 29.11. 19:00 3.5° C bedeckt
Ortszeit Relative Feuchte Sichtweite
So, 29.11. 19:00 76% >70 km
So, 29.11. 13:00 84% 45 km
So, 29.11. 7:00 95% 18 km
So, 29.11. 1:00 86% 55 km
Sa, 28.11. 19:00 86% 55 km
Sa, 28.11. 13:00 87% 40 km
Sa, 28.11. 7:00 96% 24 km
Sa, 28.11. 1:00 99% 7 km
Ortszeit Relative Feuchte Sichtweite
So, 29.11. 20:30 82% 55 km
So, 29.11. 20:20 82% -
So, 29.11. 20:10 80% -
So, 29.11. 20:00 79% 60 km
So, 29.11. 19:50 79% -
So, 29.11. 19:40 76% -
So, 29.11. 19:30 77% >70 km
So, 29.11. 19:00 76% >70 km
Ortszeit Niederschlagsmenge Niederschlagsart
So, 29.11. 19:00 0.1 l/m2 in 12 Std. -
So, 29.11. 13:00 0.1 l/m2 in 6 Std. Regen
So, 29.11. 7:00 0.1 l/m2 in 12 Std. Regen
So, 29.11. 1:00 0.0 l/m2 in 6 Std. -
Sa, 28.11. 19:00 0.0 l/m2 in 12 Std. -
Sa, 28.11. 13:00 0.0 l/m2 in 6 Std. -
Sa, 28.11. 7:00 0.0 l/m2 in 12 Std. -
Sa, 28.11. 1:00 0.0 l/m2 in 6 Std. -
Ortszeit Niederschlagsmenge Niederschlagsart
So, 29.11. 20:30 0.1 l/m2 in 1 Std. -
So, 29.11. 20:20 keine Meldung -
So, 29.11. 20:10 keine Meldung -
So, 29.11. 20:00 0.0 l/m2 in 1 Std. -
So, 29.11. 19:50 keine Meldung -
So, 29.11. 19:40 keine Meldung -
So, 29.11. 19:30 0.0 l/m2 in 1 Std. -
So, 29.11. 19:00 0.0 l/m2 in 1 Std. -
Ortszeit Stärke Spitze Richtung
km/h Bft. km/h Grad Sektor
So, 29.11. 19:00 17 3 30 320° NW
So, 29.11. 13:00 19 3 33 340° N
So, 29.11. 7:00 25 4 36 360° N
So, 29.11. 1:00 11 2 14 290° W
Sa, 28.11. 19:00 7 2 25 240° SW
Sa, 28.11. 13:00 11 2 32 150° SO
Sa, 28.11. 7:00 13 3 15 220° SW
Sa, 28.11. 1:00 6 1 19 190° S
Ortszeit Stärke Spitze Richtung
km/h Bft. km/h Grad Sektor
So, 29.11. 20:30 18 3 29 320° NW
So, 29.11. 20:20 18 3 - 320° NW
So, 29.11. 20:10 18 3 - 310° NW
So, 29.11. 20:00 20 4 26 320° NW
So, 29.11. 19:50 20 4 - 320° NW
So, 29.11. 19:40 14 3 - 310° NW
So, 29.11. 19:30 13 3 20 320° NW
So, 29.11. 19:00 17 3 28 320° NW
Ortszeit Untergrenze Bedeckung Gattung
total tief tief mittel hoch
So, 29.11. 19:00 600 m 8/8 8/8 - - -
So, 29.11. 13:00 450 m 3/8 3/8 - - -
So, 29.11. 7:00 150 m 8/8 8/8 - - -
So, 29.11. 1:00 1020 m 8/8 8/8 - - -
Sa, 28.11. 19:00 840 m 7/8 7/8 - - -
Sa, 28.11. 13:00 450 m 7/8 7/8 - - -
Sa, 28.11. 7:00 - 0/8 0/8 - - -
Sa, 28.11. 1:00 660 m 3/8 3/8 - - -
Ortszeit Bedeckungsgrad in Achtel und Wolkenuntergrenze
So, 29.11. 20:30 7(570m)
So, 29.11. 20:20 7(570m)
So, 29.11. 20:10 7(570m)
So, 29.11. 20:00 7(600m)
So, 29.11. 19:50 7(600m)
So, 29.11. 19:40 8(600m)
So, 29.11. 19:30 8(600m)
So, 29.11. 19:00 8(600m)
Ortszeit Luftdruck NN (hPa) Tendenz (hPa in 3 Std.)
So, 29.11. 19:00 1027 - 0,3
So, 29.11. 13:00 1028 - 0,6
So, 29.11. 7:00 1028 + 0,1
So, 29.11. 1:00 1028 + 0,2
Sa, 28.11. 19:00 1028 + 0,8
Sa, 28.11. 13:00 1027 + 0,7
Sa, 28.11. 7:00 1025 + 0,4
Sa, 28.11. 1:00 1024 + 0,4
Ortszeit Luftdruck NN (hPa) Tendenz (hPa in 3 Std.)
So, 29.11. 20:30 1027 0,0
So, 29.11. 20:20 1027 keine Meldung
So, 29.11. 20:10 1027 keine Meldung
So, 29.11. 20:00 1027 - 0,1
So, 29.11. 19:50 1027 keine Meldung
So, 29.11. 19:40 1027 keine Meldung
So, 29.11. 19:30 1027 - 0,2
So, 29.11. 19:00 1027 - 0,3
Ortszeit Schneehöhe (cm)
So, 29.11. 19:00 0
So, 29.11. 13:00 0
So, 29.11. 7:00 0
So, 29.11. 1:00 0
Sa, 28.11. 19:00 0
Sa, 28.11. 13:00 0
Sa, 28.11. 7:00 0
Sa, 28.11. 1:00 0
Ortszeit Schneehöhe (cm)
So, 29.11. 20:30 0
So, 29.11. 20:20 0
So, 29.11. 20:10 0
So, 29.11. 20:00 0
So, 29.11. 19:50 0
So, 29.11. 19:40 0
So, 29.11. 19:30 0
So, 29.11. 19:00 0
Link zu dieser Seite / Seite empfehlen

Das Wetter in ...